Terminal Aerodrome Forecast
Issued by NWS

Home | Current Version | Previous Version | Text Only | Print | Product List | Glossary On
Versions: 1 2 3 4 5 6 7 8 9 10 11 12 13 14 15 16 17 18 19 20 21 22 23 24 25 26 27 28 29 30 31 32 33 34 35 36 37 38 39 40 41
000
FTUS45 KGJT 180137 AAA
TAFRIL
TAF AMD
KRIL 180137Z 1802/1824 26003KT P6SM VCSH SCT025 OVC035
      TEMPO 1802/1806 6SM -RASN BR FEW015 BKN025
     FM180600 00000KT P6SM VCFG BKN025 OVC040
     FM181900 27003KT P6SM SCT050 BKN090=

USA.gov is the U.S. government's official web portal to all federal, state and local government web resources and services.